Elliston Post Office, Australia
Current Conditions -  °F | °C
As of 5:00 AM on Saturday 29 Nov 2014 (Local Time) from YCDU Reporting Station
Clear Clear  
Wind Chill: 79°   Ceiling: Unl
Heat Index: 79°   Visibility: 6mi
Dew Point: 25°   Wind: 16mph
Humidity: 14%   Direction: 70°ENE
Pressure: 29.74"   Gusts: NA
Location:  33.65°S, 134.88°E
Report Text: YCDU 281900Z AUTO 07014KT 9999 // NCD 26/M04 Q1007
Loading
Personal Weather Stations






























Interactive Weather Map New forecast layout! Learn more

10-Day Weather Forecast

Advertisements
Track Severe Weather on mobile